| time (UTC) | temp C | wind direction | speed KPH | gust KPH | rain 1hr cm | rain 24hr cm | rain mn cm | humidity % | barometer mb |
| 20260504100559 | 13 | 145 | 1.6 | 8.0 | 0.00 | 0.00 | 0.00 | 93 | 1014.7 |
| 20260504100106 | 13 | 129 | 4.8 | 8.0 | 0.00 | 0.00 | 0.00 | 93 | 1014.9 |
| 20260504090125 | 13 | 137 | 3.2 | 8.0 | 0.00 | 0.00 | 0.00 | 92 | 1015.3 |
| 20260504081608 | 13 | 132 | 3.2 | 8.0 | 0.00 | 0.00 | 0.00 | 91 | 1015.5 |
| 20260504081057 | 13 | 134 | 3.2 | 8.0 | 0.00 | 0.00 | 0.00 | 90 | 1015.7 |
| 20260504080556 | 13 | 128 | 3.2 | 6.4 | 0.00 | 0.00 | 0.00 | 89 | 1015.6 |
| 20260504080112 | 13 | 121 | 3.2 | 6.4 | 0.00 | 0.00 | 0.00 | 89 | 1015.6 |
| 20260504050555 | 16 | 128 | 6.4 | 11.3 | 0.00 | 0.00 | 0.00 | 82 | 1017.8 |
| 20260504045600 | 16 | 148 | 6.4 | 14.5 | 0.00 | 0.00 | 0.00 | 82 | 1018.1 |
| 20260504045056 | 16 | 161 | 4.8 | 14.5 | 0.00 | 0.00 | 0.00 | 83 | 1018.0 |
| 20260504044609 | 16 | 138 | 4.8 | 14.5 | 0.00 | 0.00 | 0.00 | 83 | 1018.1 |
| 20260504044054 | 16 | 147 | 6.4 | 14.5 | 0.00 | 0.00 | 0.00 | 84 | 1018.2 |
| 20260504043555 | 16 | 154 | 8.0 | 12.9 | 0.00 | 0.00 | 0.00 | 84 | 1018.2 |
| 20260504043056 | 16 | 134 | 6.4 | 12.9 | 0.00 | 0.00 | 0.00 | 85 | 1018.2 |
| 20260504042556 | 15 | 136 | 6.4 | 14.5 | 0.00 | 0.00 | 0.00 | 86 | 1018.3 |
| 20260504042057 | 15 | 163 | 6.4 | 14.5 | 0.00 | 0.00 | 0.00 | 86 | 1018.2 |
| 20260504041558 | 15 | 118 | 6.4 | 12.9 | 0.00 | 0.00 | 0.00 | 87 | 1018.2 |
| 20260504041056 | 15 | 169 | 4.8 | 11.3 | 0.00 | 0.00 | 0.00 | 87 | 1018.3 |
| 20260504040556 | 15 | 138 | 4.8 | 8.0 | 0.00 | 0.00 | 0.00 | 86 | 1018.4 |
| 20260504040115 | 15 | 143 | 3.2 | 8.0 | 0.00 | 0.00 | 0.00 | 86 | 1018.4 |
| 20260504035559 | 15 | 145 | 3.2 | 9.7 | 0.00 | 0.00 | 0.00 | 86 | 1018.4 |
| 20260504035056 | 15 | 146 | 3.2 | 9.7 | 0.00 | 0.00 | 0.00 | 86 | 1018.3 |
| 20260504034607 | 15 | 130 | 3.2 | 11.3 | 0.00 | 0.00 | 0.00 | 86 | 1018.3 |
| 20260504034056 | 15 | 150 | 3.2 | 11.3 | 0.00 | 0.00 | 0.00 | 85 | 1018.2 |
| 20260504033558 | 15 | 140 | 4.8 | 8.0 | 0.00 | 0.00 | 0.00 | 85 | 1018.2 |
| 20260504033056 | 16 | 146 | 3.2 | 9.7 | 0.00 | 0.00 | 0.00 | 84 | 1018.3 |
| 20260504032555 | 16 | 151 | 3.2 | 9.7 | 0.00 | 0.00 | 0.00 | 83 | 1018.3 |
| 20260504032058 | 16 | 156 | 1.6 | 8.0 | 0.00 | 0.00 | 0.00 | 83 | 1018.4 |
| 20260504031553 | 16 | 136 | 1.6 | 8.0 | 0.00 | 0.00 | 0.00 | 82 | 1018.3 |
| 20260504031057 | 16 | 142 | 1.6 | 8.0 | 0.00 | 0.00 | 0.00 | 81 | 1018.2 |
| 20260504030558 | 16 | 146 | 3.2 | 6.4 | 0.00 | 0.00 | 0.00 | 80 | 1018.2 |
| 20260504030055 | 17 | 156 | 3.2 | 8.0 | 0.00 | 0.00 | 0.00 | 80 | 1018.1 |
| 20260504025559 | 17 | 148 | 3.2 | 8.0 | 0.00 | 0.00 | 0.00 | 80 | 1018.2 |
| 20260504025056 | 17 | 142 | 3.2 | 8.0 | 0.00 | 0.00 | 0.00 | 78 | 1018.2 |
| 20260504024558 | 17 | 138 | 3.2 | 11.3 | 0.00 | 0.00 | 0.00 | 78 | 1018.2 |
| 20260504024055 | 17 | 144 | 4.8 | 11.3 | 0.00 | 0.00 | 0.00 | 77 | 1018.0 |
| 20260504023556 | 17 | 148 | 4.8 | 11.3 | 0.00 | 0.00 | 0.00 | 77 | 1018.1 |
| 20260504023058 | 17 | 140 | 4.8 | 12.9 | 0.00 | 0.00 | 0.00 | 76 | 1017.9 |
| 20260504022557 | 17 | 129 | 4.8 | 12.9 | 0.00 | 0.00 | 0.00 | 76 | 1017.8 |
| 20260504022058 | 17 | 123 | 4.8 | 12.9 | 0.00 | 0.00 | 0.00 | 76 | 1017.6 |
| 20260504021556 | 18 | 146 | 6.4 | 12.9 | 0.00 | 0.00 | 0.00 | 76 | 1017.6 |
| 20260504021055 | 18 | 148 | 6.4 | 11.3 | 0.00 | 0.00 | 0.00 | 75 | 1017.7 |
| 20260504020555 | 18 | 132 | 4.8 | 12.9 | 0.00 | 0.00 | 0.00 | 75 | 1017.8 |
| 20260504020056 | 18 | 142 | 6.4 | 12.9 | 0.00 | 0.00 | 0.00 | 74 | 1017.6 |
| 20260504015556 | 18 | 126 | 6.4 | 12.9 | 0.00 | 0.00 | 0.00 | 73 | 1017.7 |
| 20260504015055 | 18 | 128 | 4.8 | 12.9 | 0.00 | 0.00 | 0.00 | 73 | 1017.7 |
| 20260504014556 | 18 | 134 | 6.4 | 11.3 | 0.00 | 0.00 | 0.00 | 72 | 1017.7 |
| 20260504014056 | 18 | 113 | 4.8 | 12.9 | 0.00 | 0.00 | 0.00 | 71 | 1017.6 |
| 20260504013556 | 18 | 134 | 4.8 | 12.9 | 0.00 | 0.00 | 0.00 | 71 | 1017.5 |
| 20260504013113 | 19 | 128 | 6.4 | 14.5 | 0.00 | 0.00 | 0.00 | 70 | 1017.6 |
| 20260504012556 | 19 | 155 | 6.4 | 14.5 | 0.00 | 0.00 | 0.00 | 69 | 1017.7 |
| 20260504012055 | 19 | 146 | 4.8 | 12.9 | 0.00 | 0.00 | 0.00 | 68 | 1017.7 |
| 20260504011554 | 20 | 130 | 4.8 | 12.9 | 0.00 | 0.00 | 0.00 | 67 | 1017.6 |
| 20260504011055 | 20 | 132 | 6.4 | 12.9 | 0.00 | 0.00 | 0.00 | 66 | 1017.6 |
| 20260504010555 | 20 | 119 | 4.8 | 12.9 | 0.00 | 0.00 | 0.00 | 66 | 1017.6 |
| 20260504010105 | 21 | 129 | 4.8 | 12.9 | 0.00 | 0.00 | 0.00 | 65 | 1017.7 |
| 20260504005556 | 21 | 126 | 3.2 | 12.9 | 0.00 | 0.00 | 0.00 | 64 | 1017.7 |
| 20260504005057 | 21 | 137 | 4.8 | 16.1 | 0.00 | 0.00 | 0.00 | 62 | 1017.8 |
| 20260504004609 | 21 | 129 | 6.4 | 16.1 | 0.00 | 0.00 | 0.00 | 61 | 1017.7 |
| 20260504004056 | 21 | 142 | 6.4 | 16.1 | 0.00 | 0.00 | 0.00 | 59 | 1017.7 |
| 20260504003555 | 22 | 131 | 6.4 | 16.1 | 0.00 | 0.00 | 0.00 | 58 | 1017.7 |
| 20260504003059 | 22 | 117 | 9.7 | 19.3 | 0.00 | 0.00 | 0.00 | 57 | 1017.7 |
| 20260504002556 | 22 | 118 | 9.7 | 20.9 | 0.00 | 0.00 | 0.00 | 56 | 1017.8 |
| 20260504002056 | 22 | 137 | 11.3 | 20.9 | 0.00 | 0.00 | 0.00 | 55 | 1017.8 |
| 20260504001608 | 22 | 141 | 9.7 | 20.9 | 0.00 | 0.00 | 0.00 | 54 | 1017.9 |
| 20260504001055 | 23 | 126 | 9.7 | 20.9 | 0.00 | 0.00 | 0.00 | 53 | 1017.9 |
| 20260504000557 | 23 | 105 | 9.7 | 22.5 | 0.00 | 0.00 | 0.00 | 53 | 1017.8 |
| 20260504000132 | 23 | 68 | 12.9 | 30.6 | 0.00 | 0.00 | 0.00 | 52 | 1017.8 |
| 20260503235557 | 23 | 93 | 12.9 | 30.6 | 0.00 | 0.00 | 0.00 | 51 | 1017.7 |
| 20260503235059 | 24 | 126 | 12.9 | 24.1 | 0.00 | 0.00 | 0.00 | 51 | 1017.8 |
| 20260503234600 | 24 | 94 | 11.3 | 24.1 | 0.00 | 0.00 | 0.00 | 51 | 1017.8 |
| 20260503234057 | 24 | 94 | 11.3 | 24.1 | 0.00 | 0.00 | 0.00 | 50 | 1017.8 |
| 20260503233556 | 25 | 101 | 12.9 | 24.1 | 0.00 | 0.00 | 0.00 | 50 | 1017.7 |
| 20260503233103 | 25 | 101 | 11.3 | 25.7 | 0.00 | 0.00 | 0.00 | 51 | 1017.6 |
| 20260503232555 | 25 | 121 | 12.9 | 25.7 | 0.00 | 0.00 | 0.00 | 50 | 1017.7 |
| 20260503232055 | 25 | 103 | 12.9 | 24.1 | 0.00 | 0.00 | 0.00 | 50 | 1017.8 |
| 20260503231559 | 25 | 86 | 12.9 | 24.1 | 0.00 | 0.00 | 0.00 | 49 | 1017.8 |
| 20260503231057 | 25 | 125 | 12.9 | 24.1 | 0.00 | 0.00 | 0.00 | 51 | 1017.7 |
| 20260503230557 | 25 | 140 | 12.9 | 24.1 | 0.00 | 0.00 | 0.00 | 49 | 1017.9 |
| 20260503225556 | 26 | 89 | 9.7 | 22.5 | 0.00 | 0.00 | 0.00 | 49 | 1018.0 |
| 20260503225056 | 26 | 138 | 9.7 | 22.5 | 0.00 | 0.00 | 0.00 | 46 | 1018.2 |
| 20260503224553 | 26 | 107 | 11.3 | 22.5 | 0.00 | 0.00 | 0.00 | 49 | 1018.0 |
| 20260503224056 | 26 | 111 | 9.7 | 20.9 | 0.00 | 0.00 | 0.00 | 47 | 1018.3 |
| 20260503223557 | 26 | 84 | 12.9 | 22.5 | 0.00 | 0.00 | 0.00 | 48 | 1018.2 |
| 20260503223057 | 26 | 104 | 12.9 | 24.1 | 0.00 | 0.00 | 0.00 | 46 | 1018.2 |
| 20260503222555 | 26 | 114 | 14.5 | 24.1 | 0.00 | 0.00 | 0.00 | 44 | 1018.2 |
| 20260503222056 | 26 | 115 | 9.7 | 17.7 | 0.00 | 0.00 | 0.00 | 40 | 1018.3 |
| 20260503221608 | 26 | 97 | 9.7 | 19.3 | 0.00 | 0.00 | 0.00 | 40 | 1018.3 |
| 20260503221056 | 26 | 132 | 9.7 | 19.3 | 0.00 | 0.00 | 0.00 | 41 | 1018.3 |
| 20260503220556 | 26 | 127 | 6.4 | 22.5 | 0.00 | 0.00 | 0.00 | 42 | 1018.5 |
| 20260503220107 | 26 | 142 | 12.9 | 22.5 | 0.00 | 0.00 | 0.00 | 43 | 1018.4 |
| 20260503215555 | 26 | 122 | 11.3 | 20.9 | 0.00 | 0.00 | 0.00 | 43 | 1018.4 |
| 20260503215138 | 26 | 103 | 8.0 | 20.9 | 0.00 | 0.00 | 0.00 | 44 | 1018.6 |
| 20260503214556 | 27 | 157 | 8.0 | 20.9 | 0.00 | 0.00 | 0.00 | 43 | 1018.6 |
| 20260503214055 | 27 | 91 | 9.7 | 20.9 | 0.00 | 0.00 | 0.00 | 42 | 1018.6 |
| 20260503213555 | 27 | 78 | 9.7 | 17.7 | 0.00 | 0.00 | 0.00 | 42 | 1018.6 |
| 20260503213057 | 27 | 102 | 8.0 | 25.7 | 0.00 | 0.00 | 0.00 | 45 | 1018.7 |
| 20260503212552 | 27 | 184 | 6.4 | 25.7 | 0.00 | 0.00 | 0.00 | 40 | 1018.8 |
| 20260503212053 | 27 | 124 | 8.0 | 20.9 | 0.00 | 0.00 | 0.00 | 43 | 1018.9 |
| 20260503211555 | 27 | 103 | 12.9 | 20.9 | 0.00 | 0.00 | 0.00 | 42 | 1018.9 |
| 20260503211052 | 27 | 147 | 8.0 | 17.7 | 0.00 | 0.00 | 0.00 | 44 | 1019.0 |
| 20260503210556 | 27 | 146 | 6.4 | 25.7 | 0.00 | 0.00 | 0.00 | 38 | 1019.2 |
| 20260503210053 | 27 | 165 | 9.7 | 25.7 | 0.00 | 0.00 | 0.00 | 37 | 1019.2 |
| 20260503205553 | 27 | 123 | 14.5 | 25.7 | 0.00 | 0.00 | 0.00 | 44 | 1019.2 |
| 20260503205056 | 27 | 121 | 11.3 | 22.5 | 0.00 | 0.00 | 0.00 | 42 | 1019.4 |
| 20260503204601 | 27 | 130 | 14.5 | 22.5 | 0.00 | 0.00 | 0.00 | 40 | 1019.4 |
| 20260503204052 | 27 | 138 | 4.8 | 22.5 | 0.00 | 0.00 | 0.00 | 42 | 1019.6 |
| 20260503203553 | 27 | 143 | 9.7 | 24.1 | 0.00 | 0.00 | 0.00 | 38 | 1019.6 |
| 20260503203058 | 27 | 138 | 12.9 | 24.1 | 0.00 | 0.00 | 0.00 | 40 | 1019.7 |
| 20260503202555 | 27 | 100 | 8.0 | 17.7 | 0.00 | 0.00 | 0.00 | 44 | 1019.8 |
| 20260503202056 | 27 | 103 | 8.0 | 19.3 | 0.00 | 0.00 | 0.00 | 42 | 1019.9 |
| 20260503201556 | 27 | 211 | 8.0 | 19.3 | 0.00 | 0.00 | 0.00 | 42 | 1020.0 |
| 20260503201052 | 27 | 92 | 11.3 | 19.3 | 0.00 | 0.00 | 0.00 | 43 | 1020.0 |
| 20260503200552 | 27 | 149 | 8.0 | 19.3 | 0.00 | 0.00 | 0.00 | 40 | 1020.1 |
| 20260503195555 | 27 | 142 | 8.0 | 19.3 | 0.00 | 0.00 | 0.00 | 42 | 1020.1 |
| 20260503195052 | 27 | 123 | 8.0 | 19.3 | 0.00 | 0.00 | 0.00 | 44 | 1020.2 |
| 20260503194559 | 27 | 123 | 8.0 | 16.1 | 0.00 | 0.00 | 0.00 | 43 | 1020.1 |
| 20260503194056 | 27 | 149 | 6.4 | 14.5 | 0.00 | 0.00 | 0.00 | 40 | 1020.3 |
| 20260503193554 | 27 | 126 | 4.8 | 17.7 | 0.00 | 0.00 | 0.00 | 43 | 1020.3 |
| 20260503193058 | 27 | 88 | 6.4 | 17.7 | 0.00 | 0.00 | 0.00 | 40 | 1020.4 |
| 20260503192556 | 27 | 95 | 6.4 | 19.3 | 0.00 | 0.00 | 0.00 | 43 | 1020.5 |
| 20260503192056 | 27 | 154 | 6.4 | 20.9 | 0.00 | 0.00 | 0.00 | 40 | 1020.5 |
| 20260503191555 | 27 | 178 | 8.0 | 20.9 | 0.00 | 0.00 | 0.00 | 42 | 1020.6 |
| 20260503191053 | 27 | 113 | 11.3 | 20.9 | 0.00 | 0.00 | 0.00 | 42 | 1020.6 |
| 20260503190556 | 27 | 144 | 9.7 | 20.9 | 0.00 | 0.00 | 0.00 | 41 | 1020.7 |
| 20260503190057 | 27 | 105 | 11.3 | 19.3 | 0.00 | 0.00 | 0.00 | 40 | 1020.6 |
| 20260503185552 | 27 | 103 | 9.7 | 16.1 | 0.00 | 0.00 | 0.00 | 39 | 1020.8 |
| 20260503185057 | 27 | 106 | 9.7 | 19.3 | 0.00 | 0.00 | 0.00 | 37 | 1021.0 |
| 20260503184604 | 27 | 225 | 8.0 | 20.9 | 0.00 | 0.00 | 0.00 | 40 | 1021.1 |
| 20260503184053 | 27 | 146 | 6.4 | 20.9 | 0.00 | 0.00 | 0.00 | 44 | 1021.1 |
| 20260503183553 | 27 | 127 | 12.9 | 20.9 | 0.00 | 0.00 | 0.00 | 39 | 1021.1 |
| 20260503183056 | 27 | 182 | 8.0 | 14.5 | 0.00 | 0.00 | 0.00 | 43 | 1021.1 |
| 20260503182556 | 27 | 166 | 6.4 | 14.5 | 0.00 | 0.00 | 0.00 | 44 | 1021.3 |
| 20260503182055 | 26 | 147 | 8.0 | 14.5 | 0.00 | 0.00 | 0.00 | 41 | 1021.5 |
| 20260503181601 | 26 | 113 | 6.4 | 14.5 | 0.00 | 0.00 | 0.00 | 42 | 1021.5 |
| 20260503181056 | 26 | 116 | 6.4 | 16.1 | 0.00 | 0.00 | 0.00 | 45 | 1021.7 |
| 20260503180556 | 26 | 153 | 8.0 | 16.1 | 0.00 | 0.00 | 0.00 | 40 | 1021.7 |
| 20260503180111 | 26 | 99 | 6.4 | 17.7 | 0.00 | 0.00 | 0.00 | 43 | 1021.9 |
| 20260503175555 | 26 | 154 | 8.0 | 17.7 | 0.00 | 0.00 | 0.00 | 43 | 1022.0 |
| 20260503175056 | 26 | 126 | 4.8 | 12.9 | 0.00 | 0.00 | 0.00 | 44 | 1022.1 |
| 20260503174554 | 26 | 134 | 3.2 | 16.1 | 0.00 | 0.00 | 0.00 | 45 | 1022.1 |
| 20260503174059 | 26 | 76 | 3.2 | 16.1 | 0.00 | 0.00 | 0.00 | 44 | 1022.1 |
| 20260503173556 | 26 | 105 | 8.0 | 16.1 | 0.00 | 0.00 | 0.00 | 47 | 1022.3 |
| 20260503173105 | 26 | 166 | 4.8 | 16.1 | 0.00 | 0.00 | 0.00 | 44 | 1022.3 |
| 20260503172556 | 26 | 108 | 9.7 | 16.1 | 0.00 | 0.00 | 0.00 | 44 | 1022.4 |
| 20260503172055 | 26 | 223 | 4.8 | 19.3 | 0.00 | 0.00 | 0.00 | 43 | 1022.4 |
| 20260503171558 | 26 | 190 | 3.2 | 19.3 | 0.00 | 0.00 | 0.00 | 45 | 1022.5 |
| 20260503171055 | 25 | 115 | 6.4 | 16.1 | 0.00 | 0.00 | 0.00 | 50 | 1022.5 |
| 20260503170556 | 25 | 87 | 11.3 | 16.1 | 0.00 | 0.00 | 0.00 | 46 | 1022.5 |
| 20260503170108 | 25 | 64 | 9.7 | 16.1 | 0.00 | 0.00 | 0.00 | 45 | 1022.6 |
| 20260503160116 | 25 | 145 | 6.4 | 17.7 | 0.00 | 0.00 | 0.00 | 41 | 1023.0 |
| 20260503150556 | 23 | 111 | 3.2 | 11.3 | 0.00 | 0.00 | 0.00 | 56 | 1022.8 |
| 20260503131055 | 16 | 27 | 3.2 | 6.4 | 0.00 | 0.00 | 0.00 | 85 | 1022.1 |
| 20260503130555 | 15 | 27 | 1.6 | 8.0 | 0.00 | 0.00 | 0.00 | 90 | 1022.1 |
| 20260503110556 | 11 | 0 | 0.0 | 0.0 | 0.00 | 0.00 | 0.00 | 95 | 1020.8 |